Latest Weather Observations for TFS F (Fingal)

IDT60801

Issued at 9:41 pm EDT Saturday 22 January 2022 (issued every 10 minutes, with the page automatically refreshed every 10 minutes)

About weather observations | Map of weather stations | Latest weather observations for TAS | Other Formats
Station Details ID: 250142 Name: PORTABLE TAS AWS 6 (TFS) Lat: -41.60 Lon: 148.06 Height: 253.0 m

Portable automatic weather stations (PAWS) are operated by other organisations, such as Fire and Emergency Services, and are included here by agreement. Portable stations may be deployed to a location for a short period and their location may be subject to change without notice. Wind observations from these stations are provided from heights of either three (3) or ten (10) metres above ground level (AGL).

Data from the previous 72 hours. | See also: Recent months for locations in Tasmania
Date/Time
EDT
Temp
°C
App
Temp
°C
Dew
Point
°C
Rel
Hum
%
Delta-T
°C
Wind Press
QNH
hPa
Press
MSL
hPa
Rain since
9am
mm
Dir  Spd
km/h
Gust
km/h
Spd
kts
Gust
kts
22/09:30pm 16.1 15.2 13.8 86 1.3 E 11 15 6 8 993.2 - 0.0
22/09:20pm 16.3 15.1 13.9 86 1.4 ESE 13 15 7 8 993.2 - 0.0
22/09:10pm 16.4 14.8 13.9 85 1.4 ESE 15 17 8 9 993.2 - 0.0
22/09:00pm 16.6 15.1 14.1 85 1.4 ESE 15 17 8 9 993.1 - 0.0
22/08:50pm 16.7 15.5 14.1 85 1.5 ESE 13 17 7 9 992.9 - 0.0
22/08:40pm 16.9 15.4 14.2 84 1.6 ESE 15 17 8 9 992.8 - 0.0
22/08:30pm 17.2 15.8 14.4 83 1.6 ESE 15 19 8 10 992.8 - 0.0
22/08:20pm 17.4 15.6 14.5 83 1.7 ESE 17 19 9 10 992.8 - 0.0
22/08:10pm 17.8 15.5 14.7 82 1.8 ESE 20 22 11 12 992.6 - 0.0
22/08:00pm 18.3 16.2 14.8 80 2.1 ESE 19 22 10 12 992.5 - 0.0
22/07:50pm 18.5 16.5 14.9 79 2.1 ESE 19 22 10 12 992.3 - 0.0
22/07:40pm 18.8 16.2 15.0 78 2.2 ESE 22 28 12 15 992.2 - 0.0
22/07:30pm 19.4 16.5 15.0 75 2.6 ESE 24 28 13 15 992.2 - 0.0
22/07:20pm 19.6 16.3 15.0 75 2.7 ESE 26 28 14 15 992.1 - 0.0
22/07:10pm 19.9 16.6 15.1 74 2.9 ESE 26 28 14 15 992.2 - 0.0
22/07:00pm 20.1 16.6 15.4 74 2.8 ESE 28 30 15 16 992.1 - 0.0
22/06:50pm 20.4 17.2 15.4 73 3.0 ESE 26 30 14 16 992.1 - 0.0
22/06:40pm 20.6 17.4 15.4 72 3.1 ESE 26 30 14 16 992.1 - 0.0
22/06:30pm 20.8 17.4 15.7 72 3.1 ESE 28 30 15 16 992.1 - 0.0
22/06:20pm 21.0 17.5 15.5 71 3.3 ESE 28 32 15 17 992.1 - 0.0
22/06:10pm 21.2 17.3 15.4 69 3.5 ESE 30 32 16 17 992.2 - 0.0
22/06:00pm 21.5 18.4 15.7 69 3.5 ESE 26 32 14 17 992.1 - 0.0
22/05:50pm 21.5 18.2 16.0 71 3.3 ESE 28 32 15 17 992.2 - 0.0
22/05:40pm 21.6 17.8 15.8 69 3.5 ESE 30 33 16 18 992.2 - 0.0
22/05:30pm 21.7 17.9 15.7 68 3.6 ESE 30 32 16 17 992.3 - 0.0
22/05:20pm 22.0 18.3 15.9 68 3.7 ESE 30 32 16 17 992.3 - 0.0
22/05:10pm 22.3 18.9 15.9 67 3.9 ESE 28 32 15 17 992.3 - 0.0
22/05:00pm 22.4 18.8 16.2 68 3.8 ESE 30 32 16 17 992.3 - 0.0
22/04:50pm 22.8 19.1 16.1 66 4.1 ESE 30 33 16 18 992.4 - 0.0
22/04:40pm 22.8 19.6 16.2 66 4.0 ESE 28 32 15 17 992.4 - 0.0
22/04:30pm 22.9 19.7 16.3 66 4.1 ESE 28 32 15 17 992.5 - 0.0
22/04:20pm 22.9 19.4 16.5 67 3.9 ESE 30 32 16 17 992.7 - 0.0
22/04:10pm 22.9 19.2 16.0 65 4.2 ESE 30 32 16 17 992.8 - 0.0
22/04:00pm 22.9 19.1 15.8 64 4.3 ESE 30 32 16 17 992.8 - 0.0
22/03:50pm 23.0 19.4 16.2 65 4.2 ESE 30 33 16 18 992.8 - 0.0
22/03:40pm 23.0 19.6 16.8 68 3.8 ESE 30 35 16 19 993.0 - 0.0
22/03:30pm 23.0 19.4 16.2 65 4.2 ESE 30 33 16 18 993.0 - 0.0
22/03:20pm 23.3 19.7 16.2 64 4.4 ESE 30 33 16 18 993.1 - 0.0
22/03:10pm 23.5 20.0 16.5 65 4.3 ESE 30 32 16 17 993.1 - 0.0
22/03:00pm 23.8 20.8 16.7 64 4.4 ESE 28 32 15 17 993.2 - 0.0
22/02:50pm 23.9 21.1 16.3 62 4.7 E 26 28 14 15 993.1 - 0.0
22/02:40pm 24.2 22.2 16.5 62 4.8 ESE 22 24 12 13 993.2 - 0.0
22/02:30pm 24.1 22.0 16.1 61 4.9 E 22 26 12 14 993.4 - 0.0
22/02:20pm 24.2 22.3 16.8 63 4.6 E 22 24 12 13 993.4 - 0.0
22/02:10pm 24.1 22.4 16.2 61 4.9 E 20 24 11 13 993.5 - 0.0
22/02:00pm 24.3 22.2 15.2 57 5.5 E 20 24 11 13 993.6 - 0.0
22/01:50pm 25.1 24.0 16.3 58 5.4 E 17 20 9 11 993.7 - 0.0
22/01:40pm 25.7 25.9 14.7 50 6.7 NE 7 15 4 8 993.8 - 0.0
22/01:30pm 25.5 24.4 10.5 39 8.5 E 7 13 4 7 994.0 - 0.0
22/01:20pm 25.6 25.2 12.5 44 7.6 ENE 6 13 3 7 994.0 - 0.0
22/01:10pm 25.3 24.5 11.0 40 8.1 E 6 7 3 4 994.3 - 0.0
22/01:00pm 25.1 24.6 12.5 45 7.3 ENE 7 9 4 5 994.4 - 0.0
22/12:50pm 25.3 25.5 13.2 47 7.1 ESE 4 11 2 6 994.6 - 0.0
22/12:40pm 24.7 24.9 14.1 51 6.3 E 6 7 3 4 994.7 - 0.0
22/12:30pm 24.4 24.0 12.5 47 6.9 NNE 6 13 3 7 994.8 - 0.0
22/12:20pm 24.4 24.6 13.0 49 6.7 ENE 4 9 2 5 995.0 - 0.0
22/12:10pm 24.2 23.8 12.5 48 6.8 E 6 7 3 4 995.2 - 0.0
22/12:00pm 23.5 23.2 12.8 51 6.2 SSE 6 7 3 4 995.3 - 0.0
22/11:50am 23.3 22.8 12.8 51 6.1 SSE 7 9 4 5 995.4 - 0.0
22/11:40am 23.5 23.6 12.7 50 6.3 SE 4 7 2 4 995.6 - 0.0
22/11:30am 22.9 22.7 12.9 53 5.8 N 6 9 3 5 995.7 - 0.0
22/11:20am 23.1 23.5 12.5 51 6.1 E 2 4 1 2 995.8 - 0.0
22/11:10am 22.4 22.9 12.9 55 5.5 NNE 2 6 1 3 996.0 - 0.0
22/11:00am 21.6 22.5 14.0 62 4.5 SSE 2 6 1 3 996.1 - 0.0
22/10:50am 21.3 21.7 13.6 61 4.5 ENE 4 7 2 4 996.2 - 0.0
22/10:40am 20.9 21.2 13.5 62 4.3 NNE 4 7 2 4 996.3 - 0.0
22/10:30am 20.9 22.0 14.5 67 3.8 E 2 4 1 2 996.4 - 0.0
22/10:20am 19.9 21.3 15.5 76 2.6 SSE 2 4 1 2 996.5 - 0.0
22/10:10am 19.3 20.5 15.0 76 2.5 E 2 4 1 2 996.6 - 0.0
22/10:00am 18.6 20.5 15.8 84 1.7 CALM 0 0 0 0 996.7 - 0.0
22/09:50am 18.0 20.1 16.3 90 1.0 CALM 0 0 0 0 996.8 - 0.0
22/09:40am 17.1 19.1 15.9 93 0.7 CALM 0 2 0 1 997.0 - 0.0
22/09:30am 16.1 17.4 15.2 94 0.5 N 2 4 1 2 997.1 - 0.0
22/09:20am 15.6 16.8 14.8 95 0.5 NNE 2 4 1 2 997.2 - 0.0
22/09:10am 14.6 15.5 14.1 97 0.3 N 2 4 1 2 997.3 - 0.0
22/09:00am 14.1 15.3 13.7 97 0.2 CALM 0 4 0 2 997.5 - 0.2
22/08:50am 13.2 14.1 12.9 98 0.2 CALM 0 4 0 2 997.6 - 0.2
22/08:40am 12.9 13.7 12.7 99 0.1 CALM 0 2 0 1 997.6 - 0.2
22/08:30am 12.2 12.4 11.9 98 0.2 W 2 4 1 2 997.5 - 0.2
22/08:20am 12.0 12.6 11.8 99 0.1 CALM 0 0 0 0 997.5 - 0.2
22/08:10am 11.6 11.7 11.5 99 0.1 N 2 4 1 2 997.5 - 0.2
22/08:00am 11.3 11.3 11.1 99 0.1 NW 2 4 1 2 997.5 - 0.2
22/07:50am 10.9 10.8 10.8 99 0.1 W 2 4 1 2 997.5 - 0.2
22/07:40am 10.6 10.4 10.5 99 0.1 SW 2 4 1 2 997.5 - 0.2
22/07:30am 10.4 10.2 10.3 99 0.1 SSW 2 4 1 2 997.4 - 0.2
22/07:20am 10.3 10.4 10.3 100 0.0 CALM 0 0 0 0 997.4 - 0.2
22/07:10am 10.1 10.2 10.1 100 0.0 CALM 0 2 0 1 997.5 - 0.2
22/07:00am 9.9 9.9 9.9 100 0.0 CALM 0 0 0 0 997.3 - 0.2
22/06:50am 9.6 9.5 9.6 100 0.0 CALM 0 2 0 1 997.3 - 0.0
22/06:40am 9.3 9.2 9.3 100 0.0 CALM 0 2 0 1 997.3 - 0.0
22/06:30am 8.8 8.5 8.8 100 0.0 CALM 0 2 0 1 997.3 - 0.0
22/06:20am 8.1 7.7 8.1 100 0.0 CALM 0 4 0 2 997.2 - 0.0
22/06:10am 7.9 7.0 7.9 100 0.0 W 2 4 1 2 997.2 - 0.0
22/06:00am 8.1 7.7 8.1 100 0.0 CALM 0 0 0 0 997.0 - 0.0
22/05:50am 8.3 7.5 8.3 100 0.0 SE 2 4 1 2 996.9 - 0.0
22/05:40am 8.5 8.2 8.5 100 0.0 CALM 0 2 0 1 996.8 - 0.0
22/05:30am 8.6 8.3 8.5 99 0.0 CALM 0 2 0 1 996.9 - 0.0
22/05:20am 8.6 8.3 8.6 100 0.0 CALM 0 2 0 1 997.0 - 0.0
22/05:10am 8.4 8.0 8.4 100 0.0 CALM 0 0 0 0 997.1 - 0.0
22/05:00am 8.3 7.9 8.2 99 0.0 CALM 0 4 0 2 997.1 - 0.0
22/04:50am 8.3 7.9 8.3 100 0.0 CALM 0 0 0 0 997.1 - 0.0
22/04:40am 8.2 7.4 8.1 99 0.0 SSW 2 4 1 2 997.1 - 0.0
22/04:30am 8.2 7.4 8.2 100 0.0 SSW 2 4 1 2 997.1 - 0.0
22/04:20am 8.4 8.0 8.4 100 0.0 CALM 0 0 0 0 997.2 - 0.0
22/04:10am 8.7 8.0 8.6 99 0.0 NNW 2 4 1 2 997.2 - 0.0
22/04:00am 8.8 8.2 8.8 100 0.0 NE 2 4 1 2 997.1 - 0.0
22/03:50am 8.7 8.4 8.6 99 0.0 CALM 0 0 0 0 997.1 - 0.0
22/03:40am 8.7 8.4 8.7 100 0.0 CALM 0 4 0 2 997.3 - 0.0
22/03:30am 8.7 7.7 8.7 100 0.0 ESE 4 6 2 3 997.3 - 0.0
22/03:20am 8.9 7.9 8.9 100 0.0 E 4 4 2 2 997.3 - 0.0
22/03:10am 9.2 8.6 9.1 99 0.0 E 2 4 1 2 997.5 - 0.0
22/03:00am 9.4 9.3 9.3 99 0.1 CALM 0 0 0 0 997.5 - 0.0
22/02:50am 9.6 9.5 9.5 99 0.1 CALM 0 0 0 0 997.5 - 0.0
22/02:40am 9.6 9.5 9.5 99 0.1 CALM 0 0 0 0 997.5 - 0.0
22/02:30am 9.4 8.9 9.3 99 0.1 E 2 2 1 1 997.5 - 0.0
22/02:20am 9.7 9.3 9.6 99 0.1 E 2 4 1 2 997.6 - 0.0
22/02:10am 9.6 9.5 9.5 99 0.1 CALM 0 0 0 0 997.7 - 0.0
22/02:00am 9.9 9.9 9.8 99 0.1 CALM 0 2 0 1 997.8 - 0.0
22/01:50am 10.3 10.4 10.2 99 0.1 CALM 0 0 0 0 997.9 - 0.0
22/01:40am 10.6 10.8 10.5 99 0.1 CALM 0 0 0 0 998.0 - 0.0
22/01:30am 10.2 10.3 10.1 99 0.1 CALM 0 0 0 0 998.1 - 0.0
22/01:20am 10.3 10.0 10.1 99 0.1 E 2 4 1 2 998.2 - 0.0
22/01:10am 10.2 9.5 9.9 98 0.2 E 4 6 2 3 998.2 - 0.0
22/01:00am 10.4 10.1 10.0 97 0.2 ESE 2 4 1 2 998.1 - 0.0
22/12:50am 10.8 11.0 10.5 98 0.2 CALM 0 0 0 0 998.1 - 0.0
22/12:40am 10.9 10.7 10.5 97 0.2 W 2 4 1 2 998.2 - 0.0
22/12:30am 11.2 11.5 10.8 97 0.2 CALM 0 2 0 1 998.2 - 0.0
22/12:20am 11.4 11.7 11.0 97 0.2 CALM 0 2 0 1 998.2 - 0.0
22/12:10am 11.4 11.4 11.0 97 0.2 SW 2 4 1 2 998.1 - 0.0
22/12:00am 11.5 10.7 10.9 96 0.3 SSW 6 6 3 3 998.1 - 0.0
 
Date/Time
EDT
Temp
°C
App
Temp
°C
Dew
Point
°C
Rel
Hum
%
Delta-T
°C
Wind Press
QNH
hPa
Press
MSL
hPa
Rain since
9am
mm
Dir  Spd
km/h
Gust
km/h
Spd
kts
Gust
kts
21/11:50pm 11.9 11.9 11.1 95 0.4 SSW 2 6 1 3 998.2 - 0.0
21/11:40pm 11.9 11.6 11.5 97 0.2 SSW 4 4 2 2 998.2 - 0.0
21/11:30pm 11.9 11.9 11.3 96 0.3 S 2 4 1 2 998.3 - 0.0
21/11:20pm 12.2 12.3 11.5 95 0.4 SSW 2 2 1 1 998.2 - 0.0
21/11:10pm 12.8 13.0 11.9 94 0.5 SW 2 4 1 2 998.3 - 0.0
21/11:00pm 13.3 13.7 12.6 95 0.4 SW 2 6 1 3 998.3 - 0.0
21/10:50pm 13.2 14.0 12.5 95 0.4 CALM 0 4 0 2 998.4 - 0.0
21/10:40pm 13.5 13.8 12.2 92 0.7 NNW 2 6 1 3 998.4 - 0.0
21/10:30pm 13.9 14.7 12.7 92 0.7 CALM 0 0 0 0 998.3 - 0.0
21/10:20pm 14.4 14.1 12.8 90 0.9 NE 6 7 3 4 998.4 - 0.0
21/10:10pm 15.1 14.3 12.9 87 1.2 NE 9 9 5 5 998.4 - 0.0
21/10:00pm 15.1 14.4 13.2 88 1.1 NE 9 9 5 5 998.4 - 0.0
21/09:50pm 15.6 14.9 13.3 86 1.3 ENE 9 11 5 6 998.3 - 0.0
21/09:40pm 15.6 14.5 13.2 86 1.4 E 11 13 6 7 998.2 - 0.0
21/09:30pm 15.3 13.9 13.3 88 1.1 E 13 15 7 8 998.1 - 0.0
21/09:20pm 15.5 14.5 13.3 87 1.2 E 11 13 6 7 998.1 - 0.0
21/09:10pm 15.4 14.4 13.5 88 1.1 E 11 13 6 7 998.1 - 0.0
21/09:00pm 15.6 14.2 13.5 87 1.2 E 13 15 7 8 998.1 - 0.0
21/08:50pm 15.7 14.4 13.6 87 1.2 E 13 17 7 9 998.0 - 0.0
21/08:40pm 16.1 15.2 13.6 85 1.4 E 11 15 6 8 998.0 - 0.0
21/08:30pm 16.4 14.8 13.8 84 1.5 ESE 15 19 8 10 998.1 - 0.0
21/08:20pm 16.8 15.2 13.9 83 1.7 - 15 17 8 9 998.0 - 0.0
21/08:10pm 17.4 15.4 13.8 79 2.1 E 17 22 9 12 998.0 - 0.0
21/08:00pm 17.9 15.5 13.9 77 2.3 E 19 20 10 11 997.9 - 0.0
21/07:50pm 18.4 16.0 13.8 74 2.7 E 19 20 10 11 997.9 - 0.0
21/07:40pm 18.9 16.5 13.7 72 3.0 E 19 20 10 11 997.9 - 0.0
21/07:30pm 19.2 17.1 13.7 70 3.2 E 17 20 9 11 997.8 - 0.0
21/07:20pm 19.5 17.1 13.8 69 3.3 E 19 22 10 12 997.6 - 0.0
21/07:10pm 19.7 17.2 14.0 69 3.3 E 20 22 11 12 997.6 - 0.0
21/07:00pm 20.0 17.5 14.1 69 3.4 E 20 22 11 12 997.5 - 0.0
21/06:50pm 20.1 16.7 13.8 67 3.7 E 24 24 13 13 997.3 - 0.0
21/06:40pm 20.2 16.8 13.8 66 3.7 E 24 26 13 14 997.3 - 0.0
21/06:30pm 20.3 17.2 14.6 70 3.4 E 24 28 13 15 997.4 - 0.0
21/06:20pm 20.5 16.9 14.3 67 3.6 E 26 28 14 15 997.4 - 0.0
21/06:10pm 20.6 17.1 14.5 68 3.6 E 26 28 14 15 997.4 - 0.0
21/06:00pm 20.7 16.7 14.2 66 3.8 E 28 32 15 17 997.3 - 0.0
21/05:50pm 21.0 17.5 14.6 67 3.8 E 26 30 14 16 997.4 - 0.0
21/05:40pm 21.0 17.0 14.2 65 4.0 - 28 30 15 16 997.5 - 0.0
21/05:30pm 21.1 17.1 14.2 64 4.1 E 28 32 15 17 997.6 - 0.0
21/05:20pm 21.1 16.7 14.2 64 4.1 E 30 32 16 17 997.5 - 0.0
21/05:10pm 21.3 17.0 14.3 64 4.1 E 30 32 16 17 997.4 - 0.0
21/05:00pm 21.6 17.8 14.7 65 4.1 E 28 30 15 16 997.5 - 0.0
21/04:50pm 21.8 18.1 15.1 65 4.0 ESE 28 30 15 16 997.7 - 0.0
21/04:40pm 21.8 18.0 14.7 64 4.2 E 28 32 15 17 997.6 - 0.0
21/04:30pm 21.8 17.0 14.0 61 4.6 E 32 33 17 18 997.7 - 0.0
21/04:20pm 22.1 17.9 14.6 62 4.5 E 30 33 16 18 997.7 - 0.0
21/04:10pm 22.2 18.3 14.5 61 4.6 E 28 33 15 18 997.9 - 0.0
21/04:00pm 22.3 18.4 14.4 61 4.7 E 28 32 15 17 997.9 - 0.0
21/03:50pm 22.5 19.0 14.4 60 4.8 E 26 30 14 16 998.0 - 0.0
21/03:40pm 22.7 18.9 14.8 61 4.7 - 28 30 15 16 997.9 - 0.0
21/03:30pm 22.8 19.5 15.0 61 4.7 E 26 28 14 15 998.1 - 0.0
21/03:20pm 22.9 19.4 14.5 59 5.0 ESE 26 30 14 16 998.2 - 0.0
21/03:10pm 23.0 20.2 15.4 62 4.6 E 24 28 13 15 998.3 - 0.0
21/03:00pm 23.2 20.9 15.6 62 4.6 E 22 24 12 13 998.4 - 0.0
21/02:50pm 23.2 20.2 14.9 59 5.0 E 24 26 13 14 998.4 - 0.0
21/02:40pm 23.6 21.4 14.9 58 5.2 E 20 22 11 12 998.6 - 0.0
21/02:30pm 24.0 21.9 14.8 56 5.5 E 19 20 10 11 998.7 - 0.0
21/02:20pm 24.4 22.7 13.7 51 6.3 E 15 19 8 10 998.8 - 0.0
21/02:10pm 25.2 24.7 13.8 49 6.8 NE 9 17 5 9 998.9 - 0.0
21/02:00pm 25.8 25.3 10.8 39 8.5 E 4 9 2 5 - - 0.0
21/01:50pm 25.7 25.3 9.9 37 8.8 SW 2 7 1 4 999.2 - 0.0
21/01:40pm 25.3 24.8 10.9 40 8.2 WSW 4 6 2 3 999.2 - 0.0
21/01:30pm 24.8 23.8 8.8 36 8.7 WNW 4 9 2 5 999.3 - 0.0
21/01:20pm 24.5 23.9 10.5 41 7.9 N 4 7 2 4 999.6 - 0.0
21/01:10pm 24.0 23.5 10.8 43 7.4 NW 4 7 2 4 999.7 - 0.0
21/01:00pm 23.7 22.7 10.4 43 7.4 W 6 7 3 4 999.7 - 0.0
21/12:50pm 23.3 22.2 9.9 42 7.4 WSW 6 11 3 6 999.8 - 0.0
21/12:40pm 22.9 22.0 11.3 48 6.5 W 7 11 4 6 - - 0.0
21/12:30pm 22.7 22.5 11.7 49 6.2 NNW 4 9 2 5 1000.0 - 0.0
21/12:20pm 22.2 21.1 9.8 45 6.8 WNW 6 9 3 5 1000.2 - 0.0
21/12:10pm 22.0 20.9 10.6 48 6.3 WNW 7 9 4 5 1000.3 - 0.0
21/12:00pm 21.3 20.1 10.3 49 6.1 WNW 7 13 4 7 1000.4 - 0.0
21/11:50am 21.1 19.9 10.4 50 5.9 NW 7 13 4 7 1000.6 - 0.0
21/11:40am 20.9 20.0 10.7 52 5.6 W 6 11 3 6 1000.7 - 0.0
21/11:30am 20.4 19.7 12.0 58 4.7 NW 7 11 4 6 1000.8 - 0.0
21/11:20am 20.2 19.9 12.7 62 4.3 WNW 6 11 3 6 1000.9 - 0.0
21/11:10am 19.9 19.0 11.2 57 4.8 W 7 11 4 6 1001.0 - 0.0
21/11:00am 19.7 19.0 11.3 58 4.7 WNW 6 9 3 5 1001.1 - 0.0
21/10:50am 19.4 18.5 10.8 57 4.7 WNW 6 11 3 6 1001.2 - 0.0
21/10:40am 18.9 19.1 13.1 69 3.3 SW 4 7 2 4 1001.3 - 0.0
21/10:30am 18.7 17.8 11.4 62 4.0 WNW 7 9 4 5 1001.4 - 0.0
21/10:20am 18.2 17.8 12.5 69 3.2 WNW 6 7 3 4 1001.4 - 0.0
21/10:10am 17.9 17.9 12.3 70 3.1 NW 4 7 2 4 1001.3 - 0.0
21/10:00am 17.3 16.8 11.9 70 3.0 NW 6 7 3 4 1001.4 - 0.0
21/09:50am 17.0 16.9 12.2 73 2.7 WSW 4 7 2 4 1001.5 - 0.0
21/09:40am 16.3 16.4 12.6 79 2.1 W 4 7 2 4 1001.6 - 0.0
21/09:30am 15.2 15.5 13.4 89 1.0 W 4 4 2 2 1001.7 - 0.0
21/09:20am 14.6 15.7 13.4 92 0.7 CALM 0 2 0 1 1001.7 - 0.0
21/09:10am 13.7 14.5 12.6 93 0.6 CALM 0 2 0 1 1001.7 - 0.0
21/09:00am 12.9 13.6 12.1 95 0.4 CALM 0 2 0 1 1001.8 - 0.0
21/08:50am 11.8 11.8 11.2 96 0.3 E 2 4 1 2 1001.8 - 0.0
21/08:40am 10.7 10.8 10.2 97 0.3 CALM 0 4 0 2 1001.7 - 0.0
21/08:30am 9.8 9.7 9.5 98 0.2 CALM 0 4 0 2 1001.7 - 0.0
21/08:20am 9.3 9.1 9.0 98 0.1 CALM 0 4 0 2 1001.7 - 0.0
21/08:10am 9.0 8.7 8.7 98 0.1 CALM 0 2 0 1 1001.6 - 0.0
21/08:00am 8.8 8.5 8.6 99 0.1 CALM 0 2 0 1 1001.6 - 0.0
21/07:50am 8.2 7.4 8.0 99 0.1 ENE 2 2 1 1 1001.5 - 0.0
21/07:40am 8.1 6.8 7.8 98 0.1 N 4 4 2 2 1001.5 - 0.0
21/07:30am 7.9 6.6 7.6 98 0.1 N 4 6 2 3 1001.4 - 0.0
21/07:20am 7.8 7.2 7.6 99 0.1 CALM 0 0 0 0 1001.3 - 0.0
21/07:10am 6.9 6.1 6.7 99 0.1 CALM 0 0 0 0 1001.2 - 0.0
21/07:00am 6.2 5.3 6.1 99 0.0 CALM 0 0 0 0 1001.2 - 0.0
21/06:50am 5.7 4.3 5.7 100 0.0 SSE 2 2 1 1 1001.3 - 0.0
21/06:40am 5.4 4.3 5.3 99 0.0 CALM 0 2 0 1 1001.3 - 0.0
21/06:30am 5.2 4.1 5.1 99 0.0 CALM 0 2 0 1 1001.2 - 0.0
21/06:20am 5.1 4.0 5.0 99 0.0 CALM 0 0 0 0 1001.2 - 0.0
21/06:10am 5.0 3.9 4.9 99 0.0 CALM 0 0 0 0 1001.2 - 0.0
21/06:00am 4.9 3.8 4.9 100 0.0 CALM 0 0 0 0 1001.2 - 0.0
21/05:50am 4.8 3.2 4.7 99 0.0 SE 2 2 1 1 1001.3 - 0.0
21/05:40am 4.7 3.1 4.7 100 0.0 E 2 4 1 2 1001.3 - 0.0
21/05:30am 4.9 3.8 4.9 100 0.0 CALM 0 0 0 0 1001.3 - 0.0
21/05:20am 5.2 3.7 5.2 100 0.0 NNE 2 2 1 1 1001.2 - 0.0
21/05:10am 5.3 3.9 5.3 100 0.0 N 2 4 1 2 1001.1 - 0.0
21/05:00am 5.1 4.0 5.0 99 0.0 CALM 0 2 0 1 1001.2 - 0.0
21/04:50am 5.0 3.1 4.9 99 0.0 S 4 6 2 3 1001.1 - 0.0
21/04:40am 4.9 3.0 4.8 99 0.0 SSE 4 4 2 2 1001.1 - 0.0
21/04:30am 4.6 2.6 4.5 99 0.0 SE 4 4 2 2 1001.1 - 0.0
21/04:20am 4.6 3.4 4.5 99 0.0 CALM 0 4 0 2 1001.1 - 0.0
21/04:10am 5.1 3.2 5.0 99 0.0 NNE 4 6 2 3 1001.1 - 0.0
21/04:00am 5.3 3.1 5.2 99 0.0 N 6 7 3 4 1001.1 - 0.0
21/03:50am 5.2 3.7 5.1 99 0.0 SW 2 4 1 2 1001.2 - 0.0
21/03:40am 5.3 3.8 5.1 99 0.1 SW 2 2 1 1 1001.2 - 0.0
21/03:30am 5.4 4.3 5.3 99 0.0 CALM 0 0 0 0 1001.4 - 0.0
21/03:20am 5.4 4.3 5.2 99 0.1 CALM 0 4 0 2 1001.3 - 0.0
21/03:10am 5.4 3.6 5.2 99 0.1 ESE 4 6 2 3 1001.3 - 0.0
21/03:00am 5.3 3.4 5.1 99 0.1 ESE 4 6 2 3 1001.4 - 0.0
21/02:50am 5.6 4.2 5.4 99 0.1 N 2 4 1 2 1001.4 - 0.0
21/02:40am 5.8 4.8 5.5 98 0.1 CALM 0 4 0 2 1001.3 - 0.0
21/02:30am 6.1 4.8 5.9 99 0.1 S 2 6 1 3 1001.4 - 0.0
21/02:20am 6.3 5.4 6.0 98 0.1 CALM 0 2 0 1 1001.4 - 0.0
21/02:10am 6.5 5.7 6.3 99 0.1 CALM 0 0 0 0 1001.6 - 0.0
21/02:00am 6.6 5.8 6.4 99 0.1 CALM 0 0 0 0 1001.7 - 0.0
21/01:50am 6.8 6.0 6.5 98 0.1 CALM 0 0 0 0 1001.7 - 0.0
21/01:40am 6.7 5.9 6.4 98 0.1 CALM 0 4 0 2 1001.7 - 0.0
21/01:30am 7.2 5.7 6.9 98 0.1 SSE 4 6 2 3 1001.6 - 0.0
21/01:20am 7.4 6.3 7.1 98 0.1 ESE 2 4 1 2 1001.7 - 0.0
21/01:10am 7.2 6.5 6.8 97 0.2 CALM 0 0 0 0 1001.8 - 0.0
21/01:00am 7.4 6.7 7.0 97 0.2 CALM 0 0 0 0 1001.9 - 0.0
21/12:50am 7.6 6.5 7.1 97 0.2 ENE 2 2 1 1 1001.8 - 0.0
21/12:40am 7.6 6.9 7.0 96 0.3 CALM 0 0 0 0 1002.0 - 0.0
21/12:30am 7.7 7.0 7.0 95 0.3 CALM 0 0 0 0 1002.1 - 0.0
21/12:20am 7.8 7.0 6.5 91 0.6 CALM 0 2 0 1 1002.1 - 0.0
21/12:10am 8.3 7.2 7.0 91 0.6 SSE 2 4 1 2 1002.1 - 0.0
21/12:00am 8.7 8.2 8.0 95 0.3 CALM 0 0 0 0 1002.2 - 0.0
 
Date/Time
EDT
Temp
°C
App
Temp
°C
Dew
Point
°C
Rel
Hum
%
Delta-T
°C
Wind Press
QNH
hPa
Press
MSL
hPa
Rain since
9am
mm
Dir  Spd
km/h
Gust
km/h
Spd
kts
Gust
kts
20/11:50pm 8.1 7.5 7.2 94 0.4 CALM 0 0 0 0 1002.2 - 0.0
20/11:40pm 8.2 7.2 7.4 95 0.4 W 2 4 1 2 1002.2 - 0.0
20/11:30pm 8.4 7.0 7.4 93 0.5 WSW 4 4 2 2 1002.2 - 0.0
20/11:20pm 8.4 7.8 7.3 93 0.5 CALM 0 2 0 1 1002.3 - 0.0
20/11:10pm 8.7 6.9 7.2 90 0.7 S 6 7 3 4 1002.3 - 0.0
20/11:00pm 8.5 6.8 7.5 93 0.5 S 6 6 3 3 1002.4 - 0.0
20/10:50pm 8.6 7.3 7.5 93 0.5 S 4 6 2 3 1002.4 - 0.0
20/10:40pm 8.9 7.3 7.8 93 0.5 S 6 6 3 3 1002.5 - 0.0
20/10:30pm 9.3 7.8 8.4 94 0.4 SSW 6 6 3 3 1002.5 - 0.0
20/10:20pm 9.7 9.0 8.7 93 0.5 W 2 6 1 3 1002.5 - 0.0
20/10:10pm 9.9 9.0 9.1 95 0.4 NW 4 6 2 3 1002.5 - 0.0
20/10:00pm 10.1 8.7 8.8 92 0.6 NE 6 7 3 4 1002.5 - 0.0
20/09:50pm 10.5 9.2 9.1 91 0.7 E 6 6 3 3 1002.3 - 0.0
20/09:40pm 11.0 9.7 9.2 89 0.9 SE 6 7 3 4 1002.2 - 0.0
20/09:30pm 11.8 10.5 9.8 87 1.0 E 7 7 4 4 1002.2 - 0.0
20/09:20pm 12.2 10.9 9.8 85 1.2 E 7 7 4 4 1002.1 - 0.0
20/09:10pm 12.6 11.3 9.9 83 1.4 ENE 7 9 4 5 1002.0 - 0.0
20/09:00pm 12.6 11.3 9.9 83 1.4 E 7 9 4 5 1001.9 - 0.0
20/08:50pm 12.6 10.9 10.0 84 1.4 ESE 9 11 5 6 1001.9 - 0.0
20/08:40pm 12.9 11.6 10.1 83 1.5 ESE 7 9 4 5 1001.8 - 0.0
20/08:30pm 13.3 11.7 10.2 81 1.6 ESE 9 11 5 6 1001.7 - 0.0
20/08:20pm 14.0 11.7 10.4 79 1.9 ESE 13 13 7 7 1001.7 - 0.0
20/08:10pm 14.7 12.4 10.6 76 2.2 ESE 13 17 7 9 1001.6 - 0.0
20/08:00pm 15.2 12.2 10.5 73 2.5 E 17 20 9 11 1001.6 - 0.0
20/07:50pm 15.8 12.8 10.6 71 2.8 E 17 19 9 10 1001.6 - 0.0
20/07:40pm 16.4 13.7 10.4 67 3.2 E 15 17 8 9 1001.5 - 0.0
20/07:30pm 16.7 14.2 9.7 63 3.7 E 13 15 7 8 1001.4 - 0.0
20/07:20pm 16.7 13.3 9.2 61 3.9 ENE 17 19 9 10 1001.5 - 0.0
20/07:10pm 17.1 13.5 9.9 62 3.8 ENE 19 20 10 11 1001.4 - 0.0
20/07:00pm 17.0 13.1 9.6 61 3.9 ENE 20 22 11 12 1001.2 - 0.0
20/06:50pm 17.1 12.9 9.9 62 3.8 ENE 22 24 12 13 1001.2 - 0.0
20/06:40pm 17.3 13.3 10.6 64 3.6 ENE 22 24 12 13 1001.0 - 0.0
20/06:30pm 17.4 13.5 10.8 65 3.6 ENE 22 26 12 14 1000.9 - 0.0
20/06:20pm 17.8 14.5 10.8 63 3.8 ENE 19 24 10 13 1000.9 - 0.0
20/06:10pm 18.1 14.8 11.0 63 3.9 E 19 22 10 12 1000.7 - 0.0
20/06:00pm 18.2 14.3 10.9 62 4.0 ENE 22 26 12 14 1000.6 - 0.0
20/05:50pm 18.7 15.6 11.7 63 3.9 E 19 22 10 12 1000.7 - 0.0
20/05:40pm 19.1 16.3 11.4 61 4.3 ENE 17 24 9 13 1000.7 - 0.0
20/05:30pm 18.9 15.7 11.4 61 4.2 ENE 19 22 10 12 1000.7 - 0.0
20/05:20pm 19.0 15.8 11.3 61 4.3 E 19 24 10 13 1000.7 - 0.0
20/05:10pm 19.2 16.4 11.2 60 4.4 E 17 20 9 11 1000.8 - 0.0
20/05:00pm 19.2 16.1 12.3 64 3.9 ENE 20 28 11 15 1000.8 - 0.0
20/04:50pm 19.1 15.7 11.4 61 4.3 ENE 20 26 11 14 1000.9 - 0.0
20/04:40pm 19.2 15.7 12.2 64 3.9 ENE 22 28 12 15 1001.0 - 0.0
20/04:30pm 19.5 16.5 11.9 61 4.3 E 19 22 10 12 1001.0 - 0.0
20/04:20pm 19.3 16.1 11.9 62 4.1 E 20 26 11 14 1001.0 - 0.0
20/04:10pm 19.4 15.8 11.7 61 4.3 ENE 22 26 12 14 1001.0 - 0.0
20/04:00pm 19.4 16.2 11.8 61 4.3 E 20 24 11 13 1001.1 - 0.0
20/03:50pm 19.1 15.6 12.3 64 3.8 E 22 24 12 13 1001.1 - 0.0
20/03:40pm 19.3 15.7 11.7 61 4.2 E 22 30 12 16 1001.2 - 0.0
20/03:30pm 19.3 15.6 12.7 65 3.8 E 24 30 13 16 1001.3 - 0.0
20/03:20pm 19.7 15.8 12.0 61 4.3 E 24 30 13 16 1001.2 - 0.0
20/03:10pm 20.4 17.3 12.3 59 4.6 E 20 24 11 13 1001.3 - 0.0
20/03:00pm 20.4 17.4 12.0 58 4.7 E 19 22 10 12 1001.2 - 0.0
20/02:50pm 20.7 18.5 13.3 62 4.3 E 17 20 9 11 1001.2 - 0.0
20/02:40pm 20.8 18.5 11.6 55 5.2 E 15 19 8 10 1001.2 - 0.0
20/02:30pm 21.1 19.8 11.2 53 5.5 E 9 13 5 7 1001.3 - 0.0
20/02:20pm 20.7 20.0 12.1 58 4.9 E 7 13 4 7 1001.4 - 0.0
20/02:10pm 20.3 18.5 10.9 54 5.2 ESE 11 13 6 7 1001.4 - 0.0
20/02:00pm 19.5 17.6 11.9 61 4.3 ESE 13 15 7 8 1001.7 - 0.0
20/01:50pm 19.5 16.9 10.8 57 4.8 E 15 17 8 9 1001.6 - 0.0
20/01:40pm 19.3 17.1 10.8 58 4.7 E 13 17 7 9 1002.1 - 0.0
20/01:30pm 19.5 17.4 11.0 58 4.7 E 13 17 7 9 1002.0 - 0.0
20/01:20pm 18.0 15.4 10.8 63 3.9 ENE 15 22 8 12 1002.2 - 0.0
20/01:10pm 18.5 15.5 10.7 60 4.3 E 17 19 9 10 1002.4 - 0.0
20/01:00pm 18.6 16.0 10.8 60 4.3 E 15 19 8 10 1002.6 - 0.0
20/12:50pm 18.3 14.7 10.6 61 4.2 E 20 20 11 11 1002.6 - 0.0
20/12:40pm 18.7 15.2 10.8 60 4.3 E 20 26 11 14 1002.5 - 0.0
20/12:30pm 19.6 17.1 10.9 57 4.8 E 15 20 8 11 1002.4 - 0.0
20/12:20pm 20.1 18.7 9.5 50 5.7 ENE 7 13 4 7 1002.6 - 0.0
20/12:10pm 20.0 18.1 9.1 49 5.8 E 9 11 5 6 1002.5 - 0.0
20/12:00pm 20.0 18.2 9.5 50 5.7 ENE 9 13 5 7 1002.5 - 0.0
20/11:50am 20.1 18.6 10.4 53 5.3 ENE 9 17 5 9 1002.5 - 0.0
20/11:40am 19.6 18.4 10.2 54 5.1 E 7 13 4 7 1002.5 - 0.0
20/11:30am 19.5 18.8 11.3 59 4.5 W 6 11 3 6 1002.7 - 0.0
20/11:20am 19.3 18.3 10.2 55 4.9 NNE 6 7 3 4 1002.7 - 0.0
20/11:10am 19.6 19.9 12.1 62 4.2 SW 2 4 1 2 1002.9 - 0.0
20/11:00am 18.9 18.2 10.1 56 4.8 E 4 7 2 4 1002.9 - 0.0
20/10:50am 18.1 17.6 10.6 61 4.1 WNW 4 9 2 5 1002.9 - 0.0
20/10:40am 17.6 16.8 9.5 59 4.3 NW 4 7 2 4 1003.0 - 0.0
20/10:30am 17.3 16.2 10.1 62 3.9 NW 6 7 3 4 1002.9 - 0.0
20/10:20am 17.4 16.7 9.9 61 4.0 NW 4 7 2 4 1003.0 - 0.0
20/10:10am 16.6 15.4 9.4 62 3.8 WNW 6 7 3 4 1003.0 - 0.0
20/10:00am 16.3 15.4 9.4 63 3.6 NW 4 7 2 4 1003.1 - 0.0
20/09:50am 16.2 15.3 9.4 64 3.6 NNE 4 6 2 3 1003.2 - 0.0
20/09:40am 15.9 14.5 9.0 63 3.6 N 6 7 3 4 1003.3 - 0.0
20/09:30am 15.8 15.3 9.4 65 3.4 SE 2 2 1 1 1003.2 - 0.0
20/09:20am 15.3 14.3 8.9 65 3.3 WNW 4 6 2 3 1003.2 - 0.0
20/09:10am 14.8 13.8 8.7 67 3.1 WNW 4 6 2 3 1003.4 - 0.0
20/09:00am 14.1 13.3 9.8 75 2.2 W 4 6 2 3 1003.6 - 0.0
20/08:50am 13.3 12.8 10.6 84 1.4 WSW 4 6 2 3 1003.5 - 0.0
20/08:40am 12.5 11.4 10.0 85 1.3 W 6 7 3 4 1003.4 - 0.0
20/08:30am 12.0 10.9 10.0 87 1.0 W 6 7 3 4 1003.5 - 0.0
20/08:20am 11.6 10.9 10.0 90 0.8 SW 4 6 2 3 1003.5 - 0.0
20/08:10am 10.4 9.5 9.1 92 0.7 W 4 6 2 3 1003.6 - 0.0
20/08:00am 9.1 7.9 8.2 94 0.4 NW 4 6 2 3 1003.6 - 0.0
20/07:50am 8.3 6.7 7.8 97 0.2 WNW 6 7 3 4 1003.6 - 0.0
20/07:40am 8.0 6.3 7.7 98 0.1 WNW 6 7 3 4 1003.5 - 0.0
20/07:30am 7.8 6.5 7.6 99 0.1 W 4 6 2 3 1003.4 - 0.0
20/07:20am 7.7 7.1 7.5 99 0.1 CALM 0 2 0 1 1003.4 - 0.0
20/07:10am 7.2 6.5 7.0 99 0.1 CALM 0 2 0 1 1003.4 - 0.0
20/07:00am 6.6 5.4 6.4 99 0.1 WSW 2 6 1 3 1003.2 - 0.0
20/06:50am 6.5 4.9 6.4 99 0.0 WNW 4 6 2 3 1003.1 - 0.0
20/06:40am 6.4 4.8 6.2 99 0.1 W 4 6 2 3 1002.9 - 0.0
20/06:30am 6.4 5.1 6.2 99 0.1 W 2 4 1 2 1002.7 - 0.0
20/06:20am 6.3 4.3 6.2 99 0.0 W 6 7 3 4 1002.9 - 0.0
20/06:10am 6.4 5.6 6.3 99 0.0 CALM 0 4 0 2 1002.9 - 0.0
20/06:00am 6.3 4.7 6.2 99 0.0 NW 4 4 2 2 1002.7 - 0.0
20/05:50am 6.3 4.7 6.2 99 0.0 W 4 6 2 3 1002.7 - 0.0
20/05:40am 5.9 3.6 5.8 99 0.0 WSW 7 9 4 5 1002.6 - 0.0
20/05:30am 5.4 3.6 5.3 99 0.0 SW 4 6 2 3 1002.6 - 0.0
20/05:20am 5.0 3.5 4.9 99 0.0 W 2 4 1 2 1002.6 - 0.0
20/05:10am 4.8 3.6 4.6 99 0.1 CALM 0 2 0 1 1002.4 - 0.0
20/05:00am 4.6 3.4 4.5 99 0.0 CALM 0 0 0 0 1002.2 - 0.0
20/04:50am 4.8 3.6 4.6 99 0.1 CALM 0 2 0 1 1002.2 - 0.0
20/04:40am 5.0 3.8 4.8 99 0.1 CALM 0 0 0 0 1002.1 - 0.0
20/04:30am 5.1 4.0 4.9 99 0.1 CALM 0 2 0 1 1002.2 - 0.0
20/04:20am 5.3 3.8 5.1 99 0.1 W 2 2 1 1 1002.0 - 0.0
20/04:10am 5.4 3.9 5.1 98 0.1 W 2 4 1 2 1001.9 - 0.0
20/04:00am 5.6 4.2 5.3 98 0.1 WSW 2 4 1 2 1001.9 - 0.0
20/03:50am 6.2 4.5 6.0 99 0.1 W 4 4 2 2 1001.8 - 0.0
20/03:40am 6.2 4.5 6.0 99 0.1 WSW 4 6 2 3 1001.9 - 0.0
20/03:30am 6.0 4.3 5.8 99 0.1 WSW 4 6 2 3 1001.9 - 0.0
20/03:20am 5.8 4.4 5.4 97 0.2 W 2 7 1 4 1001.9 - 0.0
20/03:10am 5.9 3.7 5.5 97 0.2 WSW 6 7 3 4 1002.0 - 0.0
20/03:00am 6.4 4.4 6.1 98 0.1 W 6 7 3 4 1002.0 - 0.0
20/02:50am 6.8 5.2 6.5 98 0.1 W 4 4 2 2 1002.0 - 0.0
20/02:40am 6.9 6.1 6.6 98 0.1 CALM 0 2 0 1 1002.1 - 0.0
20/02:30am 6.9 5.7 6.5 97 0.2 WSW 2 4 1 2 1002.1 - 0.0
20/02:20am 7.2 5.7 6.9 98 0.1 S 4 4 2 2 1002.2 - 0.0
20/02:10am 6.9 5.4 6.6 98 0.1 WSW 4 4 2 2 1002.3 - 0.0
20/02:00am 7.0 6.2 6.6 97 0.2 CALM 0 4 0 2 1002.4 - 0.0
20/01:50am 7.0 6.2 6.6 97 0.2 CALM 0 0 0 0 1002.5 - 0.0
20/01:40am 6.9 5.7 6.3 96 0.3 WSW 2 6 1 3 1002.6 - 0.0
20/01:30am 7.4 6.3 6.9 97 0.2 WNW 2 6 1 3 1002.6 - 0.0
20/01:20am 7.4 6.6 6.7 95 0.3 CALM 0 2 0 1 1002.6 - 0.0
20/01:10am 7.5 6.4 6.9 96 0.3 SSW 2 4 1 2 1002.7 - 0.0
20/01:00am 7.7 7.0 7.1 96 0.3 CALM 0 4 0 2 1002.7 - 0.0
20/12:50am 7.9 6.5 7.3 96 0.3 SW 4 6 2 3 1002.7 - 0.0
20/12:40am 7.7 6.6 7.0 95 0.3 W 2 6 1 3 1002.7 - 0.0
20/12:30am 7.8 6.0 7.2 96 0.3 WSW 6 6 3 3 1002.6 - 0.0
20/12:20am 7.7 5.9 7.0 95 0.3 WSW 6 6 3 3 1002.6 - 0.0
20/12:10am 7.8 5.9 6.9 94 0.4 W 6 7 3 4 1002.6 - 0.0
20/12:00am 7.7 5.8 6.7 93 0.5 WNW 6 7 3 4 1002.4 - 0.0
 
Date/Time
EDT
Temp
°C
App
Temp
°C
Dew
Point
°C
Rel
Hum
%
Delta-T
°C
Wind Press
QNH
hPa
Press
MSL
hPa
Rain since
9am
mm
Dir  Spd
km/h
Gust
km/h
Spd
kts
Gust
kts
19/11:50pm 8.4 7.0 7.1 91 0.6 S 4 7 2 4 1002.7 - 0.0
19/11:40pm 8.3 7.3 7.2 93 0.5 SE 2 6 1 3 1002.6 - 0.0
19/11:30pm 8.3 7.3 7.5 95 0.4 SSW 2 4 1 2 1002.6 - 0.0
19/11:20pm 8.3 6.9 7.4 94 0.4 S 4 4 2 2 1002.5 - 0.0
19/11:10pm 8.5 6.8 7.6 94 0.4 S 6 7 3 4 1002.4 - 0.0
19/11:00pm 8.8 7.8 7.4 91 0.7 SSW 2 6 1 3 1002.3 - 0.0
19/10:50pm 9.2 8.4 8.0 92 0.6 S 2 4 1 2 1002.4 - 0.0
19/10:40pm 9.0 8.5 7.9 93 0.5 CALM 0 4 0 2 1002.4 - 0.0
19/10:30pm 9.3 8.5 8.0 92 0.6 SSW 2 6 1 3 1002.3 - 0.0
19/10:20pm 9.6 8.8 8.2 91 0.7 ESE 2 4 1 2 1002.2 - 0.0
19/10:10pm 9.9 8.8 8.3 90 0.8 NE 4 6 2 3 1002.2 - 0.0
19/10:00pm 9.9 9.5 8.4 90 0.7 CALM 0 4 0 2 1002.0 - 0.0
19/09:50pm 10.6 10.3 8.7 88 0.9 CALM 0 2 0 1 1001.9 - 0.0

Other formats

Comma delimited format used in spreadsheet applications
http://www.bom.gov.au/fwo/IDT60801/IDT60801.99954.axf

JavaScript Object Notation format (JSON) in row-major order
http://www.bom.gov.au/fwo/IDT60801/IDT60801.99954.json

Data quality

Most of these data are generated automatically and are frequently updated. Quality checks on data are not normally performed. It is possible for incorrect values to appear. Refer to information at About Latest Weather Observations and please check the disclaimer before using these data.